sensor_id;sensor_type;location;lat;lon;timestamp;P1;durP1;ratioP1;P2;durP2;ratioP2
1136;SDS011;557;48.466;7.950;2023-05-16T00:02:07;18.97;;;14.10;;
1136;SDS011;557;48.466;7.950;2023-05-16T00:04:56;17.27;;;13.97;;
1136;SDS011;557;48.466;7.950;2023-05-16T00:07:44;19.53;;;14.77;;
1136;SDS011;557;48.466;7.950;2023-05-16T00:10:32;19.87;;;14.33;;
1136;SDS011;557;48.466;7.950;2023-05-16T00:13:20;19.67;;;14.80;;
1136;SDS011;557;48.466;7.950;2023-05-16T00:16:10;22.97;;;16.70;;
1136;SDS011;557;48.466;7.950;2023-05-16T00:18:59;17.60;;;13.50;;
1136;SDS011;557;48.466;7.950;2023-05-16T00:21:48;21.37;;;15.07;;
1136;SDS011;557;48.466;7.950;2023-05-16T00:24:35;20.70;;;16.00;;
1136;SDS011;557;48.466;7.950;2023-05-16T00:27:23;20.17;;;15.37;;
1136;SDS011;557;48.466;7.950;2023-05-16T00:30:10;22.67;;;16.93;;
1136;SDS011;557;48.466;7.950;2023-05-16T00:32:58;19.77;;;15.50;;
1136;SDS011;557;48.466;7.950;2023-05-16T00:35:46;24.23;;;17.00;;
1136;SDS011;557;48.466;7.950;2023-05-16T00:38:35;22.70;;;15.80;;
1136;SDS011;557;48.466;7.950;2023-05-16T00:41:22;21.60;;;15.37;;
1136;SDS011;557;48.466;7.950;2023-05-16T00:44:10;24.00;;;16.07;;
1136;SDS011;557;48.466;7.950;2023-05-16T00:46:58;19.67;;;14.27;;
1136;SDS011;557;48.466;7.950;2023-05-16T00:49:47;21.93;;;16.73;;
1136;SDS011;557;48.466;7.950;2023-05-16T00:52:34;19.47;;;15.53;;
1136;SDS011;557;48.466;7.950;2023-05-16T00:55:23;22.90;;;16.80;;
1136;SDS011;557;48.466;7.950;2023-05-16T00:58:10;23.73;;;16.47;;
1136;SDS011;557;48.466;7.950;2023-05-16T01:00:59;20.80;;;16.23;;
1136;SDS011;557;48.466;7.950;2023-05-16T01:03:48;21.40;;;16.23;;
1136;SDS011;557;48.466;7.950;2023-05-16T01:06:35;23.90;;;16.73;;
1136;SDS011;557;48.466;7.950;2023-05-16T01:09:23;22.03;;;16.53;;
1136;SDS011;557;48.466;7.950;2023-05-16T01:12:12;23.17;;;16.87;;
1136;SDS011;557;48.466;7.950;2023-05-16T01:15:06;27.07;;;17.87;;
1136;SDS011;557;48.466;7.950;2023-05-16T01:17:58;25.07;;;16.70;;
1136;SDS011;557;48.466;7.950;2023-05-16T01:20:51;25.77;;;17.57;;
1136;SDS011;557;48.466;7.950;2023-05-16T01:23:46;24.80;;;17.53;;
1136;SDS011;557;48.466;7.950;2023-05-16T01:26:39;26.17;;;17.40;;
1136;SDS011;557;48.466;7.950;2023-05-16T01:29:27;27.87;;;17.80;;
1136;SDS011;557;48.466;7.950;2023-05-16T01:32:15;27.53;;;17.87;;
1136;SDS011;557;48.466;7.950;2023-05-16T01:35:02;24.13;;;17.70;;
1136;SDS011;557;48.466;7.950;2023-05-16T01:37:51;27.00;;;19.80;;
1136;SDS011;557;48.466;7.950;2023-05-16T01:40:45;24.93;;;18.63;;
1136;SDS011;557;48.466;7.950;2023-05-16T01:43:41;31.80;;;18.80;;
1136;SDS011;557;48.466;7.950;2023-05-16T01:46:30;26.40;;;19.30;;
1136;SDS011;557;48.466;7.950;2023-05-16T01:49:24;29.10;;;18.90;;
1136;SDS011;557;48.466;7.950;2023-05-16T01:52:15;27.00;;;19.53;;
1136;SDS011;557;48.466;7.950;2023-05-16T01:55:08;31.87;;;19.80;;
1136;SDS011;557;48.466;7.950;2023-05-16T01:57:57;27.67;;;19.57;;
1136;SDS011;557;48.466;7.950;2023-05-16T02:00:47;29.13;;;19.80;;
1136;SDS011;557;48.466;7.950;2023-05-16T02:03:34;28.10;;;19.60;;
1136;SDS011;557;48.466;7.950;2023-05-16T02:06:22;28.10;;;20.57;;
1136;SDS011;557;48.466;7.950;2023-05-16T02:09:10;31.70;;;19.47;;
1136;SDS011;557;48.466;7.950;2023-05-16T02:11:57;31.20;;;21.23;;
1136;SDS011;557;48.466;7.950;2023-05-16T02:14:45;27.70;;;19.70;;
1136;SDS011;557;48.466;7.950;2023-05-16T02:17:33;27.30;;;19.20;;
1136;SDS011;557;48.466;7.950;2023-05-16T02:20:21;29.87;;;19.90;;
1136;SDS011;557;48.466;7.950;2023-05-16T02:23:08;27.30;;;18.83;;
1136;SDS011;557;48.466;7.950;2023-05-16T02:25:55;26.97;;;18.43;;
1136;SDS011;557;48.466;7.950;2023-05-16T02:28:42;26.27;;;18.70;;
1136;SDS011;557;48.466;7.950;2023-05-16T02:31:30;25.30;;;17.53;;
1136;SDS011;557;48.466;7.950;2023-05-16T02:34:20;27.20;;;18.50;;
1136;SDS011;557;48.466;7.950;2023-05-16T02:37:08;26.57;;;19.30;;
1136;SDS011;557;48.466;7.950;2023-05-16T02:39:55;28.17;;;18.70;;
1136;SDS011;557;48.466;7.950;2023-05-16T02:42:43;26.87;;;18.37;;
1136;SDS011;557;48.466;7.950;2023-05-16T02:45:32;30.00;;;20.00;;
1136;SDS011;557;48.466;7.950;2023-05-16T02:48:19;28.07;;;19.37;;
1136;SDS011;557;48.466;7.950;2023-05-16T02:51:08;27.73;;;19.37;;
1136;SDS011;557;48.466;7.950;2023-05-16T02:53:55;28.93;;;18.77;;
1136;SDS011;557;48.466;7.950;2023-05-16T02:56:44;29.83;;;21.17;;
1136;SDS011;557;48.466;7.950;2023-05-16T02:59:31;29.47;;;20.33;;
1136;SDS011;557;48.466;7.950;2023-05-16T03:02:18;26.17;;;18.77;;
1136;SDS011;557;48.466;7.950;2023-05-16T03:05:06;28.00;;;18.57;;
1136;SDS011;557;48.466;7.950;2023-05-16T03:07:55;31.97;;;20.50;;
1136;SDS011;557;48.466;7.950;2023-05-16T03:10:43;32.20;;;22.13;;
1136;SDS011;557;48.466;7.950;2023-05-16T03:13:30;27.63;;;19.83;;
1136;SDS011;557;48.466;7.950;2023-05-16T03:16:20;31.03;;;19.93;;
1136;SDS011;557;48.466;7.950;2023-05-16T03:19:07;32.10;;;21.37;;
1136;SDS011;557;48.466;7.950;2023-05-16T03:21:54;32.97;;;22.50;;
1136;SDS011;557;48.466;7.950;2023-05-16T03:24:43;34.17;;;22.57;;
1136;SDS011;557;48.466;7.950;2023-05-16T03:27:31;42.57;;;22.97;;
1136;SDS011;557;48.466;7.950;2023-05-16T03:30:18;40.20;;;24.20;;
1136;SDS011;557;48.466;7.950;2023-05-16T03:33:06;36.67;;;23.27;;
1136;SDS011;557;48.466;7.950;2023-05-16T03:35:53;33.37;;;22.27;;
1136;SDS011;557;48.466;7.950;2023-05-16T03:38:40;38.60;;;25.30;;
1136;SDS011;557;48.466;7.950;2023-05-16T03:41:29;33.57;;;23.30;;
1136;SDS011;557;48.466;7.950;2023-05-16T03:44:16;33.90;;;22.30;;
1136;SDS011;557;48.466;7.950;2023-05-16T03:47:03;35.13;;;23.30;;
1136;SDS011;557;48.466;7.950;2023-05-16T03:49:51;37.83;;;23.73;;
1136;SDS011;557;48.466;7.950;2023-05-16T03:52:39;37.67;;;24.20;;
1136;SDS011;557;48.466;7.950;2023-05-16T03:55:26;35.20;;;21.90;;
1136;SDS011;557;48.466;7.950;2023-05-16T03:58:16;40.50;;;24.23;;
1136;SDS011;557;48.466;7.950;2023-05-16T04:01:04;35.40;;;21.97;;
1136;SDS011;557;48.466;7.950;2023-05-16T04:03:51;35.13;;;22.33;;
1136;SDS011;557;48.466;7.950;2023-05-16T04:06:38;31.27;;;22.23;;
1136;SDS011;557;48.466;7.950;2023-05-16T04:09:25;30.53;;;21.40;;
1136;SDS011;557;48.466;7.950;2023-05-16T04:12:13;30.90;;;20.70;;
1136;SDS011;557;48.466;7.950;2023-05-16T04:15:02;34.73;;;21.83;;
1136;SDS011;557;48.466;7.950;2023-05-16T04:17:51;33.80;;;22.30;;
1136;SDS011;557;48.466;7.950;2023-05-16T04:20:38;36.17;;;22.60;;
1136;SDS011;557;48.466;7.950;2023-05-16T04:23:27;37.50;;;22.60;;
1136;SDS011;557;48.466;7.950;2023-05-16T04:26:14;33.80;;;22.00;;
1136;SDS011;557;48.466;7.950;2023-05-16T04:29:02;40.70;;;24.47;;
1136;SDS011;557;48.466;7.950;2023-05-16T04:31:51;40.77;;;23.07;;
1136;SDS011;557;48.466;7.950;2023-05-16T04:34:39;39.30;;;25.20;;
1136;SDS011;557;48.466;7.950;2023-05-16T04:37:28;46.13;;;24.90;;
1136;SDS011;557;48.466;7.950;2023-05-16T04:40:16;44.07;;;25.90;;
1136;SDS011;557;48.466;7.950;2023-05-16T04:43:03;50.30;;;24.60;;
1136;SDS011;557;48.466;7.950;2023-05-16T04:45:51;53.20;;;28.50;;
1136;SDS011;557;48.466;7.950;2023-05-16T04:48:40;47.00;;;26.80;;
1136;SDS011;557;48.466;7.950;2023-05-16T04:51:27;43.10;;;24.90;;
1136;SDS011;557;48.466;7.950;2023-05-16T04:54:16;48.63;;;26.50;;
1136;SDS011;557;48.466;7.950;2023-05-16T04:57:04;52.47;;;26.20;;
1136;SDS011;557;48.466;7.950;2023-05-16T04:59:51;45.50;;;25.90;;
1136;SDS011;557;48.466;7.950;2023-05-16T05:02:38;50.07;;;26.90;;
1136;SDS011;557;48.466;7.950;2023-05-16T05:05:27;49.97;;;26.30;;
1136;SDS011;557;48.466;7.950;2023-05-16T05:08:14;46.03;;;26.27;;
1136;SDS011;557;48.466;7.950;2023-05-16T05:11:02;47.23;;;24.40;;
1136;SDS011;557;48.466;7.950;2023-05-16T05:13:49;44.87;;;24.20;;
1136;SDS011;557;48.466;7.950;2023-05-16T05:16:36;45.80;;;25.30;;
1136;SDS011;557;48.466;7.950;2023-05-16T05:19:24;47.67;;;24.20;;
1136;SDS011;557;48.466;7.950;2023-05-16T05:22:12;47.10;;;26.07;;
1136;SDS011;557;48.466;7.950;2023-05-16T05:25:00;42.77;;;23.93;;
1136;SDS011;557;48.466;7.950;2023-05-16T05:27:48;47.17;;;25.93;;
1136;SDS011;557;48.466;7.950;2023-05-16T05:30:35;43.17;;;25.07;;
1136;SDS011;557;48.466;7.950;2023-05-16T05:33:25;43.67;;;23.90;;
1136;SDS011;557;48.466;7.950;2023-05-16T05:36:14;48.47;;;24.77;;
1136;SDS011;557;48.466;7.950;2023-05-16T05:39:03;48.43;;;24.60;;
1136;SDS011;557;48.466;7.950;2023-05-16T05:41:50;43.23;;;24.73;;
1136;SDS011;557;48.466;7.950;2023-05-16T05:44:38;45.60;;;24.97;;
1136;SDS011;557;48.466;7.950;2023-05-16T05:47:25;38.60;;;21.10;;
1136;SDS011;557;48.466;7.950;2023-05-16T05:50:12;42.50;;;23.10;;
1136;SDS011;557;48.466;7.950;2023-05-16T05:53:00;44.43;;;24.30;;
1136;SDS011;557;48.466;7.950;2023-05-16T05:55:49;41.50;;;22.73;;
1136;SDS011;557;48.466;7.950;2023-05-16T05:58:37;46.30;;;23.97;;
1136;SDS011;557;48.466;7.950;2023-05-16T06:01:26;39.70;;;22.50;;
1136;SDS011;557;48.466;7.950;2023-05-16T06:04:13;38.67;;;23.20;;
1136;SDS011;557;48.466;7.950;2023-05-16T06:07:01;37.57;;;21.43;;
1136;SDS011;557;48.466;7.950;2023-05-16T06:09:48;38.00;;;23.20;;
1136;SDS011;557;48.466;7.950;2023-05-16T06:12:37;38.20;;;21.20;;
1136;SDS011;557;48.466;7.950;2023-05-16T06:15:24;35.03;;;20.80;;
1136;SDS011;557;48.466;7.950;2023-05-16T06:18:12;35.10;;;22.20;;
1136;SDS011;557;48.466;7.950;2023-05-16T06:20:59;33.27;;;20.33;;
1136;SDS011;557;48.466;7.950;2023-05-16T06:23:46;41.03;;;21.30;;
1136;SDS011;557;48.466;7.950;2023-05-16T06:26:34;37.80;;;21.00;;
1136;SDS011;557;48.466;7.950;2023-05-16T06:29:23;39.50;;;20.83;;
1136;SDS011;557;48.466;7.950;2023-05-16T06:32:10;33.43;;;20.67;;
1136;SDS011;557;48.466;7.950;2023-05-16T06:34:57;37.53;;;21.37;;
1136;SDS011;557;48.466;7.950;2023-05-16T06:37:45;39.93;;;22.70;;
1136;SDS011;557;48.466;7.950;2023-05-16T06:40:32;35.87;;;21.10;;
1136;SDS011;557;48.466;7.950;2023-05-16T06:43:19;32.63;;;19.43;;
1136;SDS011;557;48.466;7.950;2023-05-16T06:46:08;35.27;;;20.30;;
1136;SDS011;557;48.466;7.950;2023-05-16T06:48:55;40.10;;;20.40;;
1136;SDS011;557;48.466;7.950;2023-05-16T06:51:43;33.93;;;19.10;;
1136;SDS011;557;48.466;7.950;2023-05-16T06:54:30;33.00;;;19.90;;
1136;SDS011;557;48.466;7.950;2023-05-16T06:57:17;35.60;;;19.43;;
1136;SDS011;557;48.466;7.950;2023-05-16T07:00:05;35.27;;;19.70;;
1136;SDS011;557;48.466;7.950;2023-05-16T07:02:55;33.77;;;20.00;;
1136;SDS011;557;48.466;7.950;2023-05-16T07:05:42;33.43;;;19.20;;
1136;SDS011;557;48.466;7.950;2023-05-16T07:08:29;31.80;;;20.00;;
1136;SDS011;557;48.466;7.950;2023-05-16T07:11:17;31.23;;;18.50;;
1136;SDS011;557;48.466;7.950;2023-05-16T07:14:04;32.50;;;18.60;;
1136;SDS011;557;48.466;7.950;2023-05-16T07:16:52;31.30;;;19.37;;
1136;SDS011;557;48.466;7.950;2023-05-16T07:19:40;32.27;;;19.27;;
1136;SDS011;557;48.466;7.950;2023-05-16T07:22:28;27.57;;;17.33;;
1136;SDS011;557;48.466;7.950;2023-05-16T07:25:15;38.30;;;19.43;;
1136;SDS011;557;48.466;7.950;2023-05-16T07:28:02;26.90;;;15.97;;
1136;SDS011;557;48.466;7.950;2023-05-16T07:30:50;29.77;;;17.97;;
1136;SDS011;557;48.466;7.950;2023-05-16T07:33:37;29.50;;;17.67;;
1136;SDS011;557;48.466;7.950;2023-05-16T07:36:26;32.97;;;18.97;;
1136;SDS011;557;48.466;7.950;2023-05-16T07:39:13;27.10;;;17.23;;
1136;SDS011;557;48.466;7.950;2023-05-16T07:42:01;28.50;;;17.40;;
1136;SDS011;557;48.466;7.950;2023-05-16T07:44:55;32.53;;;18.63;;
1136;SDS011;557;48.466;7.950;2023-05-16T07:47:42;32.73;;;18.37;;
1136;SDS011;557;48.466;7.950;2023-05-16T07:50:30;31.13;;;19.07;;
1136;SDS011;557;48.466;7.950;2023-05-16T07:53:19;31.83;;;17.80;;
1136;SDS011;557;48.466;7.950;2023-05-16T07:56:07;36.37;;;19.53;;
1136;SDS011;557;48.466;7.950;2023-05-16T07:58:54;33.10;;;19.43;;
1136;SDS011;557;48.466;7.950;2023-05-16T08:01:43;32.80;;;18.37;;
1136;SDS011;557;48.466;7.950;2023-05-16T08:04:31;27.67;;;16.90;;
1136;SDS011;557;48.466;7.950;2023-05-16T08:07:18;32.50;;;18.87;;
1136;SDS011;557;48.466;7.950;2023-05-16T08:10:07;30.90;;;18.40;;
1136;SDS011;557;48.466;7.950;2023-05-16T08:12:55;31.10;;;18.37;;
1136;SDS011;557;48.466;7.950;2023-05-16T08:15:42;35.97;;;21.27;;
1136;SDS011;557;48.466;7.950;2023-05-16T08:18:30;31.60;;;19.00;;
1136;SDS011;557;48.466;7.950;2023-05-16T08:21:17;38.83;;;20.73;;
1136;SDS011;557;48.466;7.950;2023-05-16T08:24:05;38.03;;;19.73;;
1136;SDS011;557;48.466;7.950;2023-05-16T08:26:54;34.03;;;17.53;;
1136;SDS011;557;48.466;7.950;2023-05-16T08:29:41;32.57;;;17.83;;
1136;SDS011;557;48.466;7.950;2023-05-16T08:32:28;32.73;;;17.53;;
1136;SDS011;557;48.466;7.950;2023-05-16T08:35:16;27.30;;;16.50;;
1136;SDS011;557;48.466;7.950;2023-05-16T08:38:03;32.90;;;17.27;;
1136;SDS011;557;48.466;7.950;2023-05-16T08:40:51;28.17;;;16.60;;
1136;SDS011;557;48.466;7.950;2023-05-16T08:43:40;28.40;;;16.87;;
1136;SDS011;557;48.466;7.950;2023-05-16T08:46:27;28.03;;;16.00;;
1136;SDS011;557;48.466;7.950;2023-05-16T08:49:15;32.00;;;17.73;;
1136;SDS011;557;48.466;7.950;2023-05-16T08:52:04;27.77;;;15.70;;
1136;SDS011;557;48.466;7.950;2023-05-16T08:54:54;28.13;;;15.60;;
1136;SDS011;557;48.466;7.950;2023-05-16T08:57:43;27.20;;;14.67;;
1136;SDS011;557;48.466;7.950;2023-05-16T09:00:32;24.57;;;14.73;;
1136;SDS011;557;48.466;7.950;2023-05-16T09:03:21;26.17;;;13.77;;
1136;SDS011;557;48.466;7.950;2023-05-16T09:06:09;22.93;;;13.90;;
1136;SDS011;557;48.466;7.950;2023-05-16T09:08:57;22.80;;;14.00;;
1136;SDS011;557;48.466;7.950;2023-05-16T09:11:45;21.53;;;12.70;;
1136;SDS011;557;48.466;7.950;2023-05-16T09:14:33;20.43;;;13.33;;
1136;SDS011;557;48.466;7.950;2023-05-16T09:17:22;20.57;;;12.13;;
1136;SDS011;557;48.466;7.950;2023-05-16T09:20:11;19.50;;;10.73;;
1136;SDS011;557;48.466;7.950;2023-05-16T09:22:59;20.00;;;11.10;;
1136;SDS011;557;48.466;7.950;2023-05-16T09:25:47;15.00;;;9.23;;
1136;SDS011;557;48.466;7.950;2023-05-16T09:28:39;14.90;;;8.80;;
1136;SDS011;557;48.466;7.950;2023-05-16T09:31:27;14.90;;;8.60;;
1136;SDS011;557;48.466;7.950;2023-05-16T09:34:22;15.57;;;8.80;;
1136;SDS011;557;48.466;7.950;2023-05-16T09:37:10;11.63;;;7.30;;
1136;SDS011;557;48.466;7.950;2023-05-16T09:39:57;13.63;;;8.47;;
1136;SDS011;557;48.466;7.950;2023-05-16T09:42:45;18.70;;;9.03;;
1136;SDS011;557;48.466;7.950;2023-05-16T09:45:33;12.50;;;7.37;;
1136;SDS011;557;48.466;7.950;2023-05-16T09:48:21;11.43;;;7.90;;
1136;SDS011;557;48.466;7.950;2023-05-16T09:51:14;14.23;;;7.77;;
1136;SDS011;557;48.466;7.950;2023-05-16T09:54:01;13.87;;;8.47;;
1136;SDS011;557;48.466;7.950;2023-05-16T09:56:52;12.93;;;8.10;;
1136;SDS011;557;48.466;7.950;2023-05-16T09:59:53;12.20;;;7.17;;
1136;SDS011;557;48.466;7.950;2023-05-16T10:02:40;12.67;;;7.77;;
1136;SDS011;557;48.466;7.950;2023-05-16T10:05:29;12.33;;;7.90;;
1136;SDS011;557;48.466;7.950;2023-05-16T10:08:19;11.20;;;5.13;;
1136;SDS011;557;48.466;7.950;2023-05-16T10:11:07;10.30;;;6.10;;
1136;SDS011;557;48.466;7.950;2023-05-16T10:13:56;10.60;;;6.67;;
1136;SDS011;557;48.466;7.950;2023-05-16T10:16:48;8.27;;;5.43;;
1136;SDS011;557;48.466;7.950;2023-05-16T10:19:38;7.57;;;4.40;;
1136;SDS011;557;48.466;7.950;2023-05-16T10:22:26;6.40;;;3.70;;
1136;SDS011;557;48.466;7.950;2023-05-16T10:25:31;6.43;;;3.40;;
1136;SDS011;557;48.466;7.950;2023-05-16T10:28:20;5.07;;;3.10;;
1136;SDS011;557;48.466;7.950;2023-05-16T10:31:07;3.60;;;2.70;;
1136;SDS011;557;48.466;7.950;2023-05-16T10:33:56;5.93;;;2.40;;
1136;SDS011;557;48.466;7.950;2023-05-16T10:36:43;4.10;;;2.63;;
1136;SDS011;557;48.466;7.950;2023-05-16T10:39:31;6.10;;;2.30;;
1136;SDS011;557;48.466;7.950;2023-05-16T10:42:27;3.67;;;2.47;;
1136;SDS011;557;48.466;7.950;2023-05-16T10:45:18;2.93;;;1.90;;
1136;SDS011;557;48.466;7.950;2023-05-16T10:48:06;3.03;;;2.03;;
1136;SDS011;557;48.466;7.950;2023-05-16T10:50:54;4.23;;;2.37;;
1136;SDS011;557;48.466;7.950;2023-05-16T10:53:42;3.07;;;2.13;;
1136;SDS011;557;48.466;7.950;2023-05-16T10:56:30;3.17;;;2.30;;
1136;SDS011;557;48.466;7.950;2023-05-16T10:59:23;2.70;;;1.60;;
1136;SDS011;557;48.466;7.950;2023-05-16T11:05:19;3.30;;;2.23;;
1136;SDS011;557;48.466;7.950;2023-05-16T11:08:06;2.90;;;1.87;;
1136;SDS011;557;48.466;7.950;2023-05-16T11:14:17;2.53;;;1.50;;
1136;SDS011;557;48.466;7.950;2023-05-16T11:17:09;3.10;;;1.70;;
1136;SDS011;557;48.466;7.950;2023-05-16T11:19:58;2.20;;;1.53;;
1136;SDS011;557;48.466;7.950;2023-05-16T11:22:45;3.60;;;2.03;;
1136;SDS011;557;48.466;7.950;2023-05-16T11:25:34;4.40;;;2.40;;
1136;SDS011;557;48.466;7.950;2023-05-16T11:28:23;3.00;;;2.20;;
1136;SDS011;557;48.466;7.950;2023-05-16T11:31:12;4.33;;;2.70;;
1136;SDS011;557;48.466;7.950;2023-05-16T11:34:00;2.70;;;1.90;;
1136;SDS011;557;48.466;7.950;2023-05-16T11:36:54;3.37;;;2.30;;
1136;SDS011;557;48.466;7.950;2023-05-16T11:39:42;3.27;;;2.00;;
1136;SDS011;557;48.466;7.950;2023-05-16T11:42:29;2.40;;;1.80;;
1136;SDS011;557;48.466;7.950;2023-05-16T11:45:18;2.53;;;1.83;;
1136;SDS011;557;48.466;7.950;2023-05-16T11:48:08;2.43;;;1.77;;
1136;SDS011;557;48.466;7.950;2023-05-16T11:50:57;2.37;;;1.70;;
1136;SDS011;557;48.466;7.950;2023-05-16T11:53:45;2.60;;;1.87;;
1136;SDS011;557;48.466;7.950;2023-05-16T11:56:34;2.50;;;1.70;;
1136;SDS011;557;48.466;7.950;2023-05-16T11:59:23;2.23;;;1.50;;
1136;SDS011;557;48.466;7.950;2023-05-16T12:02:11;2.37;;;1.83;;
1136;SDS011;557;48.466;7.950;2023-05-16T12:04:58;2.47;;;1.90;;
1136;SDS011;557;48.466;7.950;2023-05-16T12:07:55;3.03;;;1.67;;
1136;SDS011;557;48.466;7.950;2023-05-16T12:10:48;1.80;;;1.23;;
1136;SDS011;557;48.466;7.950;2023-05-16T12:13:36;2.70;;;1.57;;
1136;SDS011;557;48.466;7.950;2023-05-16T12:16:24;2.87;;;1.70;;
1136;SDS011;557;48.466;7.950;2023-05-16T12:19:11;2.03;;;1.40;;
1136;SDS011;557;48.466;7.950;2023-05-16T12:21:59;2.80;;;1.60;;
1136;SDS011;557;48.466;7.950;2023-05-16T12:24:48;1.80;;;1.20;;
1136;SDS011;557;48.466;7.950;2023-05-16T12:27:36;3.60;;;1.93;;
1136;SDS011;557;48.466;7.950;2023-05-16T12:30:28;1.90;;;1.40;;
1136;SDS011;557;48.466;7.950;2023-05-16T12:33:17;2.30;;;1.60;;
1136;SDS011;557;48.466;7.950;2023-05-16T12:36:11;2.57;;;1.83;;
1136;SDS011;557;48.466;7.950;2023-05-16T12:38:59;2.30;;;1.70;;
1136;SDS011;557;48.466;7.950;2023-05-16T12:41:50;2.90;;;1.73;;
1136;SDS011;557;48.466;7.950;2023-05-16T12:44:37;2.77;;;1.77;;
1136;SDS011;557;48.466;7.950;2023-05-16T12:47:33;2.77;;;2.00;;
1136;SDS011;557;48.466;7.950;2023-05-16T12:50:21;2.40;;;1.67;;
1136;SDS011;557;48.466;7.950;2023-05-16T12:53:12;2.17;;;1.47;;
1136;SDS011;557;48.466;7.950;2023-05-16T12:56:00;2.30;;;1.67;;
1136;SDS011;557;48.466;7.950;2023-05-16T12:58:50;2.50;;;2.27;;
1136;SDS011;557;48.466;7.950;2023-05-16T13:01:37;2.90;;;1.67;;
1136;SDS011;557;48.466;7.950;2023-05-16T13:04:26;3.10;;;2.33;;
1136;SDS011;557;48.466;7.950;2023-05-16T13:07:13;2.80;;;1.70;;
1136;SDS011;557;48.466;7.950;2023-05-16T13:10:02;3.03;;;1.80;;
1136;SDS011;557;48.466;7.950;2023-05-16T13:12:51;2.33;;;1.53;;
1136;SDS011;557;48.466;7.950;2023-05-16T13:15:44;2.60;;;1.67;;
1136;SDS011;557;48.466;7.950;2023-05-16T13:18:31;6.80;;;1.50;;
1136;SDS011;557;48.466;7.950;2023-05-16T13:21:20;2.40;;;1.60;;
1136;SDS011;557;48.466;7.950;2023-05-16T13:24:08;2.20;;;1.53;;
1136;SDS011;557;48.466;7.950;2023-05-16T13:26:55;2.47;;;1.40;;
1136;SDS011;557;48.466;7.950;2023-05-16T13:29:44;2.47;;;1.57;;
1136;SDS011;557;48.466;7.950;2023-05-16T13:32:33;2.47;;;1.67;;
1136;SDS011;557;48.466;7.950;2023-05-16T13:35:20;2.50;;;1.80;;
1136;SDS011;557;48.466;7.950;2023-05-16T13:38:08;3.20;;;1.90;;
1136;SDS011;557;48.466;7.950;2023-05-16T13:40:57;2.70;;;1.80;;
1136;SDS011;557;48.466;7.950;2023-05-16T13:43:45;2.80;;;1.70;;
1136;SDS011;557;48.466;7.950;2023-05-16T13:46:32;3.17;;;1.90;;
1136;SDS011;557;48.466;7.950;2023-05-16T13:49:21;3.20;;;1.83;;
1136;SDS011;557;48.466;7.950;2023-05-16T13:52:09;2.60;;;1.90;;
1136;SDS011;557;48.466;7.950;2023-05-16T13:54:57;2.63;;;1.93;;
1136;SDS011;557;48.466;7.950;2023-05-16T14:00:41;4.00;;;1.53;;
1136;SDS011;557;48.466;7.950;2023-05-16T14:03:28;3.23;;;1.77;;
1136;SDS011;557;48.466;7.950;2023-05-16T14:06:18;3.10;;;1.77;;
1136;SDS011;557;48.466;7.950;2023-05-16T14:09:05;3.57;;;1.90;;
1136;SDS011;557;48.466;7.950;2023-05-16T14:11:52;4.50;;;2.50;;
1136;SDS011;557;48.466;7.950;2023-05-16T14:14:40;3.23;;;2.30;;
1136;SDS011;557;48.466;7.950;2023-05-16T14:17:30;3.23;;;2.30;;
1136;SDS011;557;48.466;7.950;2023-05-16T14:20:20;2.93;;;2.23;;
1136;SDS011;557;48.466;7.950;2023-05-16T14:23:09;5.03;;;2.53;;
1136;SDS011;557;48.466;7.950;2023-05-16T14:25:56;5.70;;;2.90;;
1136;SDS011;557;48.466;7.950;2023-05-16T14:28:44;3.80;;;2.60;;
1136;SDS011;557;48.466;7.950;2023-05-16T14:32:00;6.67;;;2.97;;
1136;SDS011;557;48.466;7.950;2023-05-16T14:35:16;3.40;;;2.60;;
1136;SDS011;557;48.466;7.950;2023-05-16T14:38:33;3.90;;;2.60;;
1136;SDS011;557;48.466;7.950;2023-05-16T14:41:50;4.47;;;2.90;;
1136;SDS011;557;48.466;7.950;2023-05-16T14:45:06;4.97;;;2.70;;
1136;SDS011;557;48.466;7.950;2023-05-16T14:48:23;4.50;;;2.73;;
1136;SDS011;557;48.466;7.950;2023-05-16T14:51:39;6.80;;;3.37;;
1136;SDS011;557;48.466;7.950;2023-05-16T14:54:56;4.40;;;2.63;;
1136;SDS011;557;48.466;7.950;2023-05-16T14:58:13;5.60;;;2.90;;
1136;SDS011;557;48.466;7.950;2023-05-16T15:01:29;3.90;;;2.77;;
1136;SDS011;557;48.466;7.950;2023-05-16T15:04:45;8.53;;;2.87;;
1136;SDS011;557;48.466;7.950;2023-05-16T15:08:01;5.03;;;2.93;;
1136;SDS011;557;48.466;7.950;2023-05-16T15:11:18;5.83;;;3.30;;
1136;SDS011;557;48.466;7.950;2023-05-16T15:14:36;5.07;;;2.50;;
1136;SDS011;557;48.466;7.950;2023-05-16T15:17:52;4.60;;;2.70;;
1136;SDS011;557;48.466;7.950;2023-05-16T15:21:08;4.83;;;2.63;;
1136;SDS011;557;48.466;7.950;2023-05-16T15:24:24;4.10;;;3.20;;
1136;SDS011;557;48.466;7.950;2023-05-16T15:27:41;4.03;;;3.17;;
1136;SDS011;557;48.466;7.950;2023-05-16T15:30:58;5.30;;;4.17;;
1136;SDS011;557;48.466;7.950;2023-05-16T15:34:14;3.97;;;2.90;;
1136;SDS011;557;48.466;7.950;2023-05-16T15:37:30;6.00;;;3.63;;
1136;SDS011;557;48.466;7.950;2023-05-16T15:40:46;5.10;;;3.60;;
1136;SDS011;557;48.466;7.950;2023-05-16T15:44:04;4.00;;;3.60;;
1136;SDS011;557;48.466;7.950;2023-05-16T15:47:21;5.10;;;3.50;;
1136;SDS011;557;48.466;7.950;2023-05-16T15:50:37;6.10;;;3.70;;
1136;SDS011;557;48.466;7.950;2023-05-16T15:53:53;5.73;;;4.30;;
1136;SDS011;557;48.466;7.950;2023-05-16T15:57:09;5.63;;;3.30;;
1136;SDS011;557;48.466;7.950;2023-05-16T16:00:26;4.60;;;4.20;;
1136;SDS011;557;48.466;7.950;2023-05-16T16:03:42;5.07;;;4.57;;
1136;SDS011;557;48.466;7.950;2023-05-16T16:06:59;5.23;;;4.30;;
1136;SDS011;557;48.466;7.950;2023-05-16T16:10:15;5.33;;;4.83;;
1136;SDS011;557;48.466;7.950;2023-05-16T16:13:31;7.00;;;4.93;;
1136;SDS011;557;48.466;7.950;2023-05-16T16:16:48;5.43;;;4.93;;
1136;SDS011;557;48.466;7.950;2023-05-16T16:20:05;6.27;;;5.23;;
1136;SDS011;557;48.466;7.950;2023-05-16T16:23:22;6.10;;;5.60;;
1136;SDS011;557;48.466;7.950;2023-05-16T16:26:38;8.60;;;5.07;;
1136;SDS011;557;48.466;7.950;2023-05-16T16:29:54;6.03;;;5.53;;
1136;SDS011;557;48.466;7.950;2023-05-16T16:33:11;5.77;;;5.23;;
1136;SDS011;557;48.466;7.950;2023-05-16T16:36:27;5.77;;;5.30;;
1136;SDS011;557;48.466;7.950;2023-05-16T16:39:44;5.70;;;5.20;;
1136;SDS011;557;48.466;7.950;2023-05-16T16:43:00;5.53;;;5.13;;
1136;SDS011;557;48.466;7.950;2023-05-16T16:46:17;5.87;;;5.47;;
1136;SDS011;557;48.466;7.950;2023-05-16T16:49:34;5.63;;;5.27;;
1136;SDS011;557;48.466;7.950;2023-05-16T16:52:51;6.87;;;6.27;;
1136;SDS011;557;48.466;7.950;2023-05-16T16:56:07;6.83;;;6.13;;
1136;SDS011;557;48.466;7.950;2023-05-16T16:59:23;6.80;;;6.30;;
1136;SDS011;557;48.466;7.950;2023-05-16T17:02:39;6.43;;;6.03;;
1136;SDS011;557;48.466;7.950;2023-05-16T17:05:57;7.30;;;6.50;;
1136;SDS011;557;48.466;7.950;2023-05-16T17:09:13;6.97;;;6.37;;
1136;SDS011;557;48.466;7.950;2023-05-16T17:12:30;7.27;;;6.57;;
1136;SDS011;557;48.466;7.950;2023-05-16T17:15:46;7.10;;;6.60;;
1136;SDS011;557;48.466;7.950;2023-05-16T17:19:02;7.20;;;6.60;;
1136;SDS011;557;48.466;7.950;2023-05-16T17:22:19;7.23;;;6.70;;
1136;SDS011;557;48.466;7.950;2023-05-16T17:25:36;7.70;;;6.93;;
1136;SDS011;557;48.466;7.950;2023-05-16T17:28:52;7.50;;;6.80;;
1136;SDS011;557;48.466;7.950;2023-05-16T17:32:08;8.43;;;6.73;;
1136;SDS011;557;48.466;7.950;2023-05-16T17:35:25;6.67;;;6.17;;
1136;SDS011;557;48.466;7.950;2023-05-16T17:38:42;6.73;;;6.20;;
1136;SDS011;557;48.466;7.950;2023-05-16T17:42:00;8.47;;;7.63;;
1136;SDS011;557;48.466;7.950;2023-05-16T17:45:16;7.40;;;6.70;;
1136;SDS011;557;48.466;7.950;2023-05-16T17:48:33;7.90;;;7.20;;
1136;SDS011;557;48.466;7.950;2023-05-16T17:51:50;7.77;;;7.10;;
1136;SDS011;557;48.466;7.950;2023-05-16T17:55:09;8.20;;;7.50;;
1136;SDS011;557;48.466;7.950;2023-05-16T17:58:26;8.40;;;7.90;;
1136;SDS011;557;48.466;7.950;2023-05-16T18:01:43;9.43;;;7.53;;
1136;SDS011;557;48.466;7.950;2023-05-16T18:05:02;7.90;;;7.17;;